createdAt,value
2017-10-08T00:00:49.539Z,99222.70
2017-10-08T00:03:25.087Z,99227.27
2017-10-08T00:06:00.529Z,99229.70
2017-10-08T00:08:35.953Z,99226.44
2017-10-08T00:11:10.882Z,99226.38
2017-10-08T00:13:46.138Z,99220.08
2017-10-08T00:16:27.817Z,99224.95
2017-10-08T00:19:02.319Z,99242.42
2017-10-08T00:21:41.267Z,99246.98
2017-10-08T00:24:16.613Z,99231.35
2017-10-08T00:26:51.531Z,99258.03
2017-10-08T00:29:27.922Z,99227.95
2017-10-08T00:32:03.663Z,99213.95
2017-10-08T00:34:38.726Z,99208.02
2017-10-08T00:37:17.911Z,99195.30
2017-10-08T00:39:52.547Z,99173.81
2017-10-08T00:42:27.241Z,99167.88
2017-10-08T00:45:02.597Z,99152.73
2017-10-08T00:47:37.564Z,99159.99
2017-10-08T00:50:12.723Z,99127.38
2017-10-08T00:52:48.334Z,99126.13
2017-10-08T00:55:23.220Z,99127.38
2017-10-08T00:57:59.438Z,99135.84
2017-10-08T01:00:34.747Z,99145.67
2017-10-08T01:03:10.141Z,99142.55
2017-10-08T01:05:45.045Z,99161.91
2017-10-08T01:08:24.182Z,99204.88
2017-10-08T01:10:59.130Z,99233.95
2017-10-08T01:13:34.760Z,99266.06
2017-10-08T01:16:09.513Z,99297.16
2017-10-08T01:18:45.552Z,99294.17
2017-10-08T01:21:21.002Z,99268.23
2017-10-08T01:23:55.890Z,99257.23
2017-10-08T01:26:30.400Z,99261.58
2017-10-08T01:29:05.277Z,99263.12
2017-10-08T01:31:39.820Z,99256.11
2017-10-08T01:34:16.262Z,99259.38
2017-10-08T01:36:51.322Z,99252.31
2017-10-08T01:39:27.778Z,99275.98
2017-10-08T01:42:02.547Z,99277.25
2017-10-08T01:44:37.948Z,99282.66
2017-10-08T01:50:11.885Z,99260.27
2017-10-08T01:52:47.332Z,99271.77
2017-10-08T01:55:23.446Z,99307.84
2017-10-08T01:57:58.043Z,99324.95
2017-10-08T02:00:34.224Z,99311.12
2017-10-08T02:03:09.314Z,99295.58
2017-10-08T02:05:45.065Z,99254.37
2017-10-08T02:08:19.865Z,99222.64
2017-10-08T02:10:54.913Z,99218.45
2017-10-08T02:13:29.732Z,99240.48
2017-10-08T02:16:05.112Z,99280.95
2017-10-08T02:18:40.028Z,99275.84
2017-10-08T02:21:16.696Z,99265.42
2017-10-08T02:23:51.665Z,99279.05
2017-10-08T02:26:26.426Z,99314.16
2017-10-08T02:29:01.181Z,99365.55
2017-10-08T02:31:39.090Z,99371.34
2017-10-08T02:34:14.435Z,99335.00
2017-10-08T02:36:50.794Z,99328.58
2017-10-08T02:39:25.538Z,99327.23
2017-10-08T02:42:06.514Z,99270.37
2017-10-08T02:44:40.935Z,99235.02
2017-10-08T02:47:16.434Z,99224.11
2017-10-08T02:49:51.080Z,99281.20
2017-10-08T02:52:30.032Z,99307.39
2017-10-08T02:55:05.433Z,99271.38
2017-10-08T02:57:41.112Z,99306.02
2017-10-08T03:00:16.933Z,99295.71
2017-10-08T03:02:52.165Z,99317.39
2017-10-08T03:05:27.568Z,99297.80
2017-10-08T03:08:03.913Z,99297.30
2017-10-08T03:10:39.397Z,99283.20
2017-10-08T03:13:14.034Z,99259.55
2017-10-08T03:15:48.832Z,99279.86
2017-10-08T03:18:26.216Z,99308.19
2017-10-08T03:21:01.582Z,99305.88
2017-10-08T03:23:36.421Z,99335.75
2017-10-08T03:26:11.106Z,99310.38
2017-10-08T03:28:46.496Z,99282.02
2017-10-08T03:31:21.913Z,99326.91
2017-10-08T03:33:58.304Z,99298.55
2017-10-08T03:36:33.224Z,99270.22
2017-10-08T03:39:10.365Z,99281.17
2017-10-08T03:41:45.987Z,99318.44
2017-10-08T03:44:21.022Z,99302.84
2017-10-08T03:46:56.409Z,99323.35
2017-10-08T03:49:24.264Z,99306.98
2017-10-08T03:52:00.405Z,99313.19
2017-10-08T03:54:35.825Z,99303.09
2017-10-08T03:57:10.430Z,99316.63
2017-10-08T03:59:46.571Z,99300.08
2017-10-08T04:02:23.251Z,99310.60
2017-10-08T04:05:00.421Z,99286.44
2017-10-08T04:07:35.489Z,99288.98
2017-10-08T04:10:14.696Z,99279.77
2017-10-08T04:12:49.614Z,99286.72
2017-10-08T04:15:24.283Z,99284.11
2017-10-08T04:17:59.699Z,99281.69
2017-10-08T04:20:35.357Z,99284.08
2017-10-08T04:23:10.423Z,99278.63
2017-10-08T04:25:45.055Z,99279.11
2017-10-08T04:28:20.372Z,99289.16
2017-10-08T04:30:55.380Z,99285.75
2017-10-08T04:33:30.097Z,99295.48
2017-10-08T04:36:06.498Z,99294.52
2017-10-08T04:38:41.229Z,99319.44
2017-10-08T04:41:18.589Z,99337.97
2017-10-08T04:43:53.534Z,99346.42
2017-10-08T04:46:28.191Z,99343.28
2017-10-08T04:49:02.817Z,99335.98
2017-10-08T04:51:38.632Z,99351.39
2017-10-08T04:54:13.447Z,99362.75
2017-10-08T04:56:58.854Z,99368.65
2017-10-08T04:59:39.452Z,99381.72
2017-10-08T05:02:14.838Z,99397.80
2017-10-08T05:04:52.101Z,99413.59
2017-10-08T05:07:31.277Z,99430.75
2017-10-08T05:10:06.373Z,99433.46
2017-10-08T05:12:42.475Z,99444.30
2017-10-08T05:15:19.192Z,99451.33
2017-10-08T05:17:56.515Z,99454.92
2017-10-08T05:23:08.021Z,99467.79
2017-10-08T05:25:43.026Z,99472.95
2017-10-08T05:28:18.070Z,99478.08
2017-10-08T05:30:53.280Z,99461.20
2017-10-08T05:33:30.036Z,99465.39
2017-10-08T05:36:04.762Z,99471.62
2017-10-08T05:38:39.659Z,99475.68
2017-10-08T05:41:15.020Z,99482.67
2017-10-08T05:43:55.474Z,99492.70
2017-10-08T05:46:30.964Z,99491.86
2017-10-08T05:48:57.715Z,99500.54
2017-10-08T05:54:08.648Z,99519.09
2017-10-08T05:56:43.308Z,99518.66
2017-10-08T05:59:10.052Z,99534.62
2017-10-08T06:01:44.719Z,99543.44
2017-10-08T06:04:22.954Z,99551.22
2017-10-08T06:06:57.756Z,99536.81
2017-10-08T06:09:33.342Z,99544.83
2017-10-08T06:12:07.896Z,99551.19
2017-10-08T06:14:43.188Z,99562.92
2017-10-08T06:17:19.813Z,99559.99
2017-10-08T06:19:55.313Z,99569.42
2017-10-08T06:22:30.071Z,99569.30
2017-10-08T06:25:06.505Z,99578.80
2017-10-08T06:27:41.261Z,99589.05
2017-10-08T06:30:16.236Z,99584.83
2017-10-08T06:32:50.800Z,99582.28
2017-10-08T06:35:28.270Z,99589.40
2017-10-08T06:38:03.061Z,99599.91
2017-10-08T06:40:39.294Z,99605.16
2017-10-08T06:43:13.954Z,99615.33
2017-10-08T06:45:49.660Z,99615.67
2017-10-08T06:48:24.475Z,99620.81
2017-10-08T06:51:03.943Z,99620.30
2017-10-08T06:53:38.944Z,99626.53
2017-10-08T06:56:05.689Z,99627.34
2017-10-08T06:58:41.154Z,99632.58
2017-10-08T07:01:18.216Z,99639.56
2017-10-08T07:03:53.442Z,99644.02
2017-10-08T07:06:29.119Z,99644.09
2017-10-08T07:09:04.585Z,99645.83
2017-10-08T07:11:40.434Z,99654.38
2017-10-08T07:14:07.173Z,99665.94
2017-10-08T07:16:41.224Z,99662.52
2017-10-08T07:19:14.710Z,99669.80
2017-10-08T07:22:10.670Z,99665.84
2017-10-08T07:27:30.967Z,99661.77
2017-10-08T07:30:03.064Z,99668.23
2017-10-08T07:32:33.808Z,99669.72
2017-10-08T07:35:00.924Z,99652.16
2017-10-08T07:37:35.958Z,99652.58
2017-10-08T07:40:10.666Z,99667.08
2017-10-08T07:42:47.164Z,99680.45
2017-10-08T07:45:13.904Z,99682.33
2017-10-08T07:47:41.165Z,99686.91
2017-10-08T07:50:13.085Z,99690.70
2017-10-08T07:52:39.817Z,99684.29
2017-10-08T07:55:17.583Z,99686.09
2017-10-08T07:58:03.652Z,99677.44
2017-10-08T08:00:38.880Z,99669.55
2017-10-08T08:03:14.182Z,99662.59
2017-10-08T08:06:05.132Z,99672.82
2017-10-08T08:08:44.942Z,99666.70
2017-10-08T08:11:19.857Z,99668.39
2017-10-08T08:13:54.694Z,99660.02
2017-10-08T08:16:30.191Z,99653.58
2017-10-08T08:19:10.469Z,99658.97
2017-10-08T08:21:51.606Z,99661.34
2017-10-08T08:24:26.638Z,99674.21
2017-10-08T08:27:04.168Z,99676.67
2017-10-08T08:29:31.303Z,99669.34
2017-10-08T08:31:59.679Z,99683.11
2017-10-08T08:37:27.010Z,99688.75
2017-10-08T08:39:57.490Z,99692.71
2017-10-08T08:53:31.087Z,99722.12
2017-10-08T08:55:59.144Z,99722.28
2017-10-08T08:58:39.199Z,99721.08
2017-10-08T09:01:06.252Z,99710.02
2017-10-08T09:03:33.402Z,99719.58
2017-10-08T09:06:02.969Z,99731.63
2017-10-08T09:08:31.441Z,99728.58
2017-10-08T09:10:58.498Z,99738.89
2017-10-08T09:13:26.708Z,99733.14
2017-10-08T09:15:53.631Z,99738.51
2017-10-08T09:18:20.806Z,99742.16
2017-10-08T09:20:53.541Z,99734.75
2017-10-08T09:23:20.432Z,99743.30
2017-10-08T09:25:47.514Z,99751.50
2017-10-08T09:28:14.884Z,99730.02
2017-10-08T09:30:42.535Z,99735.72
2017-10-08T09:33:13.349Z,99740.23
2017-10-08T09:35:41.300Z,99733.64
2017-10-08T09:38:10.651Z,99743.98
2017-10-08T09:40:39.646Z,99727.72
2017-10-08T09:43:13.188Z,99742.56
2017-10-08T09:45:40.601Z,99746.66
2017-10-08T09:48:11.134Z,99735.18
2017-10-08T09:50:38.981Z,99736.44
2017-10-08T09:53:06.854Z,99731.16
2017-10-08T09:55:33.770Z,99734.86
2017-10-08T09:58:00.640Z,99735.02
2017-10-08T10:00:27.515Z,99732.99
2017-10-08T10:02:54.328Z,99734.18
2017-10-08T10:05:23.256Z,99735.36
2017-10-08T10:07:50.539Z,99748.87
2017-10-08T10:10:17.425Z,99719.76
2017-10-08T10:12:44.249Z,99716.47
2017-10-08T10:15:11.061Z,99721.44
2017-10-08T10:17:38.269Z,99723.39
2017-10-08T10:20:06.819Z,99720.50
2017-10-08T10:22:33.605Z,99727.09
2017-10-08T10:25:00.424Z,99739.38
2017-10-08T10:27:52.010Z,99750.17
2017-10-08T10:30:18.827Z,99744.81
2017-10-08T10:32:45.758Z,99738.67
2017-10-08T10:35:14.386Z,99749.34
2017-10-08T10:37:41.175Z,99740.24
2017-10-08T10:40:08.148Z,99739.09
2017-10-08T10:42:35.047Z,99734.94
2017-10-08T10:45:01.907Z,99758.45
2017-10-08T10:47:28.853Z,99755.78
2017-10-08T10:50:00.803Z,99733.58
2017-10-08T10:52:28.060Z,99754.73
2017-10-08T10:54:54.989Z,99781.66
2017-10-08T10:57:22.217Z,99773.68
2017-10-08T10:59:49.291Z,99771.31
2017-10-08T11:02:16.605Z,99768.73
2017-10-08T11:04:43.589Z,99773.83
2017-10-08T11:07:10.461Z,99765.27
2017-10-08T11:09:37.285Z,99777.36
2017-10-08T11:12:05.494Z,99790.54
2017-10-08T11:14:32.809Z,99788.48
2017-10-08T11:16:59.712Z,99786.09
2017-10-08T11:19:29.154Z,99789.66
2017-10-08T11:21:56.631Z,99780.72
2017-10-08T11:24:23.546Z,99786.48
2017-10-08T11:26:51.651Z,99791.10
2017-10-08T11:29:18.855Z,99800.58
2017-10-08T11:31:45.759Z,99799.88
2017-10-08T11:34:12.769Z,99801.75
2017-10-08T11:36:39.743Z,99798.49
2017-10-08T11:39:06.698Z,99790.25
2017-10-08T11:41:33.919Z,99798.70
2017-10-08T11:44:00.832Z,99788.98
2017-10-08T11:46:27.999Z,99795.15
2017-10-08T11:48:55.478Z,99795.92
2017-10-08T11:51:23.644Z,99808.29
2017-10-08T11:53:52.428Z,99800.42
2017-10-08T11:56:28.232Z,99805.27
2017-10-08T11:58:55.216Z,99796.26
2017-10-08T12:01:22.104Z,99813.30
2017-10-08T12:03:52.516Z,99816.68
2017-10-08T12:06:19.473Z,99796.98
2017-10-08T12:08:46.502Z,99818.03
2017-10-08T12:11:13.443Z,99811.37
2017-10-08T12:13:40.776Z,99826.12
2017-10-08T12:16:07.796Z,99831.89
2017-10-08T12:18:37.281Z,99841.25
2017-10-08T12:21:04.067Z,99836.14
2017-10-08T12:23:30.880Z,99839.90
2017-10-08T12:25:58.155Z,99840.13
2017-10-08T12:28:25.045Z,99836.98
2017-10-08T12:30:51.831Z,99842.31
2017-10-08T12:33:19.127Z,99842.69
2017-10-08T12:35:45.971Z,99861.69
2017-10-08T12:38:12.888Z,99848.28
2017-10-08T12:40:39.831Z,99844.50
2017-10-08T12:43:06.670Z,99841.81
2017-10-08T12:45:33.525Z,99851.44
2017-10-08T12:48:00.414Z,99859.22
2017-10-08T12:50:27.215Z,99871.92
2017-10-08T12:52:54.109Z,99878.09
2017-10-08T12:55:20.929Z,99867.67
2017-10-08T12:57:47.704Z,99881.46
2017-10-08T13:00:15.366Z,99877.63
2017-10-08T13:02:44.866Z,99884.78
2017-10-08T13:05:11.971Z,99883.72
2017-10-08T13:07:38.824Z,99888.16
2017-10-08T13:10:05.626Z,99890.20
2017-10-08T13:12:32.459Z,99892.16
2017-10-08T13:14:59.267Z,99885.62
2017-10-08T13:17:25.990Z,99885.38
2017-10-08T13:19:52.764Z,99895.79
2017-10-08T13:22:22.248Z,99902.34
2017-10-08T13:24:49.337Z,99904.41
2017-10-08T13:27:31.530Z,99908.86
2017-10-08T13:30:01.537Z,99908.80
2017-10-08T13:32:28.310Z,99905.34
2017-10-08T13:34:55.082Z,99908.95
2017-10-08T13:37:22.900Z,99909.02
2017-10-08T13:39:49.878Z,99907.52
2017-10-08T13:42:18.635Z,99911.20
2017-10-08T13:44:47.687Z,99916.47
2017-10-08T13:47:14.678Z,99918.58
2017-10-08T13:49:50.679Z,99925.00
2017-10-08T13:52:19.052Z,99926.53
2017-10-08T13:54:46.000Z,99936.05
2017-10-08T13:57:13.006Z,99937.94
2017-10-08T13:59:40.857Z,99935.42
2017-10-08T14:02:07.730Z,99946.02
2017-10-08T14:04:36.269Z,99946.84
2017-10-08T14:07:03.341Z,99942.73
2017-10-08T14:09:30.207Z,99943.93
2017-10-08T14:11:59.529Z,99953.59
2017-10-08T14:14:26.438Z,99947.23
2017-10-08T14:16:53.411Z,99952.30
2017-10-08T14:19:20.499Z,99954.08
2017-10-08T14:21:47.399Z,99935.34
2017-10-08T14:24:14.551Z,99948.16
2017-10-08T14:26:42.646Z,99951.33
2017-10-08T14:29:09.724Z,99951.37
2017-10-08T14:31:36.984Z,99952.31
2017-10-08T14:34:08.183Z,99947.30
2017-10-08T14:36:35.332Z,99942.38
2017-10-08T14:39:02.496Z,99944.88
2017-10-08T14:41:29.641Z,99944.98
2017-10-08T14:43:56.832Z,99943.75
2017-10-08T14:46:24.232Z,99945.06
2017-10-08T14:48:51.416Z,99941.32
2017-10-08T14:51:19.501Z,99945.66
2017-10-08T14:53:46.733Z,99937.97
2017-10-08T14:56:14.787Z,99938.00
2017-10-08T14:58:41.694Z,99929.53
2017-10-08T15:01:08.638Z,99938.92
2017-10-08T15:03:36.573Z,99942.16
2017-10-08T15:06:03.665Z,99939.17
2017-10-08T15:08:30.700Z,99940.66
2017-10-08T15:10:57.702Z,99936.86
2017-10-08T15:13:24.751Z,99940.70
2017-10-08T15:15:51.704Z,99938.63
2017-10-08T15:18:19.307Z,99959.05
2017-10-08T15:20:46.387Z,99949.41
2017-10-08T15:26:12.328Z,99953.82
2017-10-08T15:28:40.375Z,99939.89
2017-10-08T15:31:17.544Z,99956.38
2017-10-08T15:33:44.609Z,99947.08
2017-10-08T15:36:25.594Z,99958.10
2017-10-08T15:38:52.571Z,99952.03
2017-10-08T15:41:21.475Z,99965.60
2017-10-08T15:43:49.723Z,99959.34
2017-10-08T15:46:17.503Z,99964.45
2017-10-08T15:48:53.135Z,99965.44
2017-10-08T15:51:21.806Z,99961.20
2017-10-08T15:53:49.559Z,99969.45
2017-10-08T15:56:33.184Z,99972.50
2017-10-08T16:05:59.543Z,99980.58
2017-10-08T16:08:30.743Z,99982.20
2017-10-08T16:14:09.563Z,99987.13
2017-10-08T16:16:38.621Z,99984.17
2017-10-08T16:19:05.958Z,99984.20
2017-10-08T16:21:49.441Z,99992.37
2017-10-08T16:24:19.608Z,99938.97
2017-10-08T16:26:46.514Z,99988.74
2017-10-08T16:29:14.138Z,99990.33
2017-10-08T16:31:40.887Z,99993.84
2017-10-08T16:34:07.713Z,99993.02
2017-10-08T16:36:34.634Z,99991.20
2017-10-08T16:39:01.548Z,99992.98
2017-10-08T16:41:28.381Z,99999.41
2017-10-08T16:43:55.215Z,99996.96
2017-10-08T16:46:22.197Z,99999.86
2017-10-08T16:48:49.025Z,100000.66
2017-10-08T16:51:17.667Z,100005.81
2017-10-08T16:53:44.527Z,100011.34
2017-10-08T16:56:11.334Z,100012.98
2017-10-08T16:58:38.443Z,100012.65
2017-10-08T17:01:05.266Z,100019.04
2017-10-08T17:03:32.182Z,100026.59
2017-10-08T17:05:59.228Z,100023.34
2017-10-08T17:08:26.236Z,100025.48
2017-10-08T17:10:54.039Z,100020.39
2017-10-08T17:13:20.877Z,100022.06
2017-10-08T17:18:43.020Z,100028.30
2017-10-08T17:21:10.499Z,100030.87
2017-10-08T17:23:37.377Z,100026.66
2017-10-08T17:26:04.342Z,100037.66
2017-10-08T17:28:31.214Z,100033.42
2017-10-08T17:30:58.123Z,100038.48
2017-10-08T17:33:25.043Z,100039.30
2017-10-08T17:35:51.875Z,100043.56
2017-10-08T17:38:18.664Z,100045.33
2017-10-08T17:40:45.594Z,100046.63
2017-10-08T17:43:12.423Z,100057.66
2017-10-08T17:45:39.799Z,100060.18
2017-10-08T17:48:07.860Z,100059.81
2017-10-08T17:50:34.934Z,100064.89
2017-10-08T17:53:01.746Z,100066.62
2017-10-08T17:55:28.582Z,100064.95
2017-10-08T17:57:56.463Z,100066.23
2017-10-08T18:00:23.379Z,100066.69
2017-10-08T18:02:52.267Z,100071.42
2017-10-08T18:05:19.110Z,100063.91
2017-10-08T18:07:46.014Z,100071.58
2017-10-08T18:10:14.066Z,100065.16
2017-10-08T18:12:40.931Z,100069.72
2017-10-08T18:15:10.837Z,100066.76
2017-10-08T18:17:37.901Z,100064.08
2017-10-08T18:20:04.716Z,100060.24
2017-10-08T18:22:31.627Z,100063.11
2017-10-08T18:24:59.450Z,100062.12
2017-10-08T18:27:26.580Z,100057.45
2017-10-08T18:29:53.421Z,100060.40
2017-10-08T18:32:20.424Z,100068.88
2017-10-08T18:34:47.484Z,100076.14
2017-10-08T18:37:14.309Z,100079.17
2017-10-08T18:39:41.136Z,100085.50
2017-10-08T18:42:09.033Z,100077.11
2017-10-08T18:44:35.839Z,100081.03
2017-10-08T18:47:03.495Z,100084.02
2017-10-08T18:49:30.320Z,100083.72
2017-10-08T18:51:57.165Z,100092.67
2017-10-08T18:54:24.956Z,100091.33
2017-10-08T18:56:51.725Z,100090.40
2017-10-08T18:59:18.475Z,100098.36
2017-10-08T19:01:45.335Z,100102.06
2017-10-08T19:04:12.097Z,100104.59
2017-10-08T19:06:38.916Z,100101.61
2017-10-08T19:09:06.612Z,100102.91
2017-10-08T19:11:33.417Z,100105.42
2017-10-08T19:14:00.212Z,100099.45
2017-10-08T19:16:27.138Z,100095.67
2017-10-08T19:18:53.931Z,100098.22
2017-10-08T19:21:20.868Z,100100.77
2017-10-08T19:23:48.724Z,100101.68
2017-10-08T19:26:15.632Z,100101.67
2017-10-08T19:28:42.669Z,100099.58
2017-10-08T19:31:10.533Z,100108.09
2017-10-08T19:33:38.622Z,100108.55
2017-10-08T19:36:05.586Z,100104.78
2017-10-08T19:38:34.183Z,100098.93
2017-10-08T19:41:01.098Z,100092.19
2017-10-08T19:43:28.810Z,100103.62
2017-10-08T19:45:56.395Z,100095.55
2017-10-08T19:48:23.285Z,100101.09
2017-10-08T19:50:50.158Z,100105.73
2017-10-08T19:53:24.450Z,100098.98
2017-10-08T19:55:51.328Z,100100.20
2017-10-08T19:58:18.574Z,100098.50
2017-10-08T20:00:45.374Z,100100.64
2017-10-08T20:03:15.485Z,100095.15
2017-10-08T20:05:44.415Z,100098.98
2017-10-08T20:08:11.260Z,100089.64
2017-10-08T20:10:47.420Z,100098.50
2017-10-08T20:13:14.300Z,100104.89
2017-10-08T20:15:41.018Z,100105.31
2017-10-08T20:18:07.813Z,100103.17
2017-10-08T20:20:34.644Z,100101.08
2017-10-08T20:23:01.555Z,100104.47
2017-10-08T20:25:28.330Z,100100.62
2017-10-08T20:27:59.236Z,100102.75
2017-10-08T20:30:26.940Z,100105.33
2017-10-08T20:32:54.763Z,100111.67
2017-10-08T20:35:21.626Z,100106.19
2017-10-08T20:37:48.511Z,100103.60
2017-10-08T20:40:16.303Z,100105.31
2017-10-08T20:42:43.225Z,100105.77
2017-10-08T20:45:10.034Z,100107.44
2017-10-08T20:47:37.867Z,100109.97
2017-10-08T20:50:06.743Z,100113.39
2017-10-08T20:52:33.538Z,100115.91
2017-10-08T20:55:02.063Z,100111.20
2017-10-08T20:57:28.834Z,100111.67
2017-10-08T20:59:55.631Z,100116.41
2017-10-08T21:02:24.371Z,100106.27
2017-10-08T21:04:51.517Z,100111.81
2017-10-08T21:07:18.402Z,100108.42
2017-10-08T21:09:46.242Z,100106.72
2017-10-08T21:12:13.202Z,100106.23
2017-10-08T21:14:40.036Z,100115.04
2017-10-08T21:17:06.856Z,100116.28
2017-10-08T21:19:33.721Z,100116.64
2017-10-08T21:22:00.570Z,100114.47
2017-10-08T21:24:29.195Z,100115.77
2017-10-08T21:26:56.011Z,100114.47
2017-10-08T21:29:22.965Z,100112.80
2017-10-08T21:31:49.830Z,100106.08
2017-10-08T21:34:16.755Z,100096.84
2017-10-08T21:36:43.589Z,100101.08
2017-10-08T21:39:10.434Z,100105.05
2017-10-08T21:41:37.324Z,100108.89
2017-10-08T21:44:04.143Z,100106.38
2017-10-08T21:46:31.810Z,100106.73
2017-10-08T21:48:58.609Z,100117.75
2017-10-08T21:51:25.569Z,100117.33
2017-10-08T21:53:52.590Z,100119.05
2017-10-08T21:56:19.490Z,100125.86
2017-10-08T21:58:46.763Z,100126.62
2017-10-08T22:01:15.422Z,100126.52
2017-10-08T22:03:43.259Z,100125.30
2017-10-08T22:06:10.202Z,100123.75
2017-10-08T22:08:37.072Z,100116.13
2017-10-08T22:11:03.847Z,100117.29
2017-10-08T22:13:30.621Z,100118.06
2017-10-08T22:15:57.579Z,100119.78
2017-10-08T22:18:24.387Z,100117.22
2017-10-08T22:20:51.157Z,100122.24
2017-10-08T22:23:18.826Z,100121.93
2017-10-08T22:25:45.673Z,100121.97
2017-10-08T22:28:12.392Z,100130.84
2017-10-08T22:30:39.211Z,100134.97
2017-10-08T22:33:06.094Z,100135.42
2017-10-08T22:35:32.864Z,100138.79
2017-10-08T22:38:00.585Z,100140.00
2017-10-08T22:40:27.295Z,100142.56
2017-10-08T22:42:54.012Z,100131.52
2017-10-08T22:45:24.420Z,100139.50
2017-10-08T22:47:51.170Z,100137.78
2017-10-08T22:50:17.949Z,100131.41
2017-10-08T22:52:45.532Z,100124.58
2017-10-08T22:55:12.302Z,100132.67
2017-10-08T22:57:39.059Z,100128.87
2017-10-08T23:00:06.346Z,100133.95
2017-10-08T23:02:33.103Z,100133.96
2017-10-08T23:04:59.924Z,100131.53
2017-10-08T23:07:26.913Z,100134.13
2017-10-08T23:09:53.643Z,100128.58
2017-10-08T23:12:20.403Z,100130.23
2017-10-08T23:14:47.498Z,100130.26
2017-10-08T23:17:14.408Z,100131.87
2017-10-08T23:19:41.184Z,100131.00
2017-10-08T23:22:10.589Z,100130.30
2017-10-08T23:24:37.319Z,100129.06
2017-10-08T23:27:04.034Z,100134.95
2017-10-08T23:29:31.282Z,100129.45
2017-10-08T23:31:58.037Z,100126.41
2017-10-08T23:34:24.802Z,100125.05
2017-10-08T23:36:55.266Z,100133.95
2017-10-08T23:39:22.003Z,100138.31
2017-10-08T23:41:49.618Z,100138.36
2017-10-08T23:44:17.483Z,100138.38
2017-10-08T23:46:44.252Z,100128.66
2017-10-08T23:49:11.063Z,100126.61
2017-10-08T23:51:38.107Z,100129.13
2017-10-08T23:54:04.916Z,100128.23
2017-10-08T23:56:31.696Z,100127.78
2017-10-08T23:59:02.119Z,100126.42
